Latest Coastal Weather Observations for Cape Otway

IDV60701

Issued at 9:41 am EST Sunday 30 August 2015 (issued every 10 minutes, with the page automatically refreshed every 10 minutes)

About coastal observations | Map of coastal stations | Coastal observations for VIC | Marine services | Other Formats
Station Details ID: 090015 Name: CAPE OTWAY LIGHTHOUSE Lat: -38.86 Lon: 143.51 Height: 82.0 m
Data from the previous 72 hours. | See also: Recent months at Cape Otway
Date/Time
EST
Temp

°C
Wind Pressure Rain
since 9am
mm
Weather Cloud Vis
km
Sea
Height
m
Swell
Dir
 
Speed
knots
Gust
knots
hPa Trend Height
m
Period
s
Dir
30/09:30am 10.3 WSW 6 9 1026.4 - 0.0 - - - - - - -
30/09:00am 10.1 WSW 5 8 1026.5 - 0.2 - - - - - - -
30/08:30am 9.9 SW 8 14 1026.3 - 0.2 - - - - - - -
30/08:00am 9.9 SW 8 12 1026.4 - 0.2 - - - - - - -
30/07:30am 9.5 SW 9 13 1026.2 - 0.2 - - - - - - -
30/07:00am 9.8 SW 8 12 1025.9 - 0.2 - - - - - - -
30/06:30am 9.6 SW 7 11 1025.7 - 0.2 - - - - - - -
30/06:00am 9.4 SW 7 12 1025.7 - 0.2 - - - - - - -
30/05:30am 9.8 SSW 11 16 1025.1 - 0.2 - - - - - - -
30/05:00am 9.6 SSW 6 11 1025.2 - 0.2 - - - - - - -
30/04:30am 9.5 SW 8 12 1025.0 - 0.2 - - - - - - -
30/04:00am 9.5 SSW 8 11 1025.1 - 0.2 - - - - - - -
30/03:30am 9.6 SW 9 13 1025.5 - 0.2 - - - - - - -
30/03:00am 9.6 SW 9 14 1025.8 - 0.2 - - - - - - -
30/02:30am 9.8 SW 8 13 1025.9 - 0.2 - - - - - - -
30/02:00am 9.4 SW 10 16 1026.1 - 0.2 - - - - - - -
30/01:30am 9.4 SW 8 13 1026.4 - 0.2 - - - - - - -
30/01:00am 9.2 SW 8 12 1026.7 - 0.2 - - - - - - -
30/12:30am 9.8 WSW 6 11 1026.6 - 0.2 - - - - - - -
30/12:00am 9.4 SW 8 13 1027.0 - 0.2 - - - - - - -
 
Date/Time
EST
Temp

°C
Wind Pressure Rain
since 9am
mm
Weather Cloud Vis
km
Sea
Height
m
Swell
Dir
 
Speed
knots
Gust
knots
hPa Trend Height
m
Period
s
Dir
29/11:30pm 9.2 SW 8 13 1027.1 - 0.2 - - - - - - -
29/11:00pm 9.6 SW 10 17 1027.1 - 0.2 - - - - - - -
29/10:30pm 9.9 SSW 14 20 1027.2 - 0.2 - - - - - - -
29/10:00pm 10.0 SSW 12 19 1027.2 - 0.2 - - - - - - -
29/09:30pm 10.0 SW 10 16 1027.3 - 0.2 - - - - - - -
29/09:00pm 9.7 SW 12 18 1027.4 - 0.2 - - - - - - -
29/08:30pm 9.9 SSW 13 18 1026.9 - 0.2 - - - - - - -
29/08:00pm 9.9 SSW 12 16 1026.9 - 0.2 - - - - - - -
29/07:30pm 9.7 SSW 15 24 1027.1 - 0.2 - - - - - - -
29/07:00pm 10.1 SSW 12 17 1027.0 - 0.2 - - - - - - -
29/06:30pm 10.0 SSW 13 21 1026.6 - 0.2 - - - - - - -
29/06:00pm 9.6 SSW 15 23 1026.7 - 0.2 - - - - - - -
29/05:30pm 10.2 SSW 13 19 1026.4 - 0.2 - - - - - - -
29/05:00pm 10.1 SSW 12 16 1026.3 - 0.2 - - - - - - -
29/04:30pm 10.2 SSW 16 21 1026.2 - 0.2 - - - - - - -
29/04:00pm 9.9 SSW 15 23 1026.5 - 0.2 - - - - - - -
29/03:30pm 10.4 SSW 17 23 1026.4 - 0.2 - - - - - - -
29/03:00pm 10.1 SSW 13 18 1026.6 - 0.2 - - - - - - -
29/02:30pm 9.9 SSW 17 26 1026.5 - 0.2 - - - - - - -
29/02:26pm 9.9 SSW 15 26 1026.4 - 0.2 - - - - - - -
29/02:00pm 10.5 SSW 17 23 1026.7 - 0.2 - - - - - - -
29/01:30pm 10.1 SSW 14 21 1026.9 - 0.2 - - - - - - -
29/01:00pm 10.2 SSW 17 23 1026.8 - 0.2 - - - - - - -
29/12:30pm 9.9 SSW 19 24 1027.5 - 0.2 - - - - - - -
29/12:00pm 10.3 SSW 13 18 1028.1 - 0.2 - - - - - - -
29/11:30am 9.4 SSW 15 19 1027.9 - 0.2 - - - - - - -
29/11:16am 9.5 SSW 15 25 1027.9 - 0.0 - - - - - - -
29/11:00am 9.4 SSW 16 23 1027.9 - 0.0 - - - - - - -
29/10:30am 9.9 SSW 15 22 1027.7 - 0.0 - - - - - - -
29/10:00am 9.5 SSW 14 23 1027.9 - 0.0 - - - - - - -
29/09:38am 9.4 SSW 15 25 1028.1 - 0.0 - - - - - - -
29/09:30am 9.3 SSW 15 20 1028.3 - 0.0 - - - - - - -
29/09:00am 9.5 SSW 14 21 1028.3 - 2.6 - - - - - - -
29/08:46am 9.2 SSW 15 25 1027.9 - 2.6 - - - - - - -
29/08:30am 9.2 SSW 16 25 1028.1 - 2.6 - - - - - - -
29/08:29am 9.1 SSW 15 25 1028.3 - 2.6 - - - - - - -
29/08:00am 9.3 SSW 13 19 1027.8 - 2.6 - - - - - - -
29/07:30am 8.6 SSW 14 19 1027.8 - 2.6 - - - - - - -
29/07:00am 8.2 SSW 11 18 1027.7 - 2.6 - - - - - - -
29/06:30am 8.4 SW 12 16 1027.4 - 2.6 - - - - - - -
29/06:00am 8.9 SSW 12 22 1027.5 - 2.6 - - - - - - -
29/05:30am 8.5 SSW 13 20 1027.4 - 2.6 - - - - - - -
29/05:00am 8.6 SSW 12 20 1027.2 - 2.6 - - - - - - -
29/04:30am 8.4 SW 11 16 1027.2 - 2.6 - - - - - - -
29/04:00am 8.4 SW 11 18 1027.2 - 2.6 - - - - - - -
29/03:30am 8.4 SW 10 16 1027.1 - 2.6 - - - - - - -
29/03:00am 8.5 SW 11 18 1027.6 - 2.6 - - - - - - -
29/02:30am 8.6 SW 9 15 1027.4 - 2.6 - - - - - - -
29/02:00am 8.5 SW 7 15 1027.7 - 2.6 - - - - - - -
29/01:30am 8.5 W 8 12 1027.9 - 2.6 - - - - - - -
29/01:00am 8.3 SSW 8 15 1027.9 - 2.6 - - - - - - -
29/12:30am 8.2 SW 9 18 1028.0 - 2.6 - - - - - - -
29/12:00am 8.4 W 8 14 1028.2 - 2.6 - - - - - - -
 
Date/Time
EST
Temp

°C
Wind Pressure Rain
since 9am
mm
Weather Cloud Vis
km
Sea
Height
m
Swell
Dir
 
Speed
knots
Gust
knots
hPa Trend Height
m
Period
s
Dir
28/11:30pm 8.3 W 8 14 1028.0 - 2.6 - - - - - - -
28/11:00pm 8.4 WSW 8 19 1028.0 - 2.6 - - - - - - -
28/10:30pm 8.4 SW 9 21 1028.3 - 2.6 - - - - - - -
28/10:00pm 8.3 WSW 9 23 1028.3 - 2.6 - - - - - - -
28/09:30pm 8.4 W 8 15 1028.1 - 2.6 - - - - - - -
28/09:00pm 8.6 WSW 8 17 1028.2 - 2.6 - - - - - - -
28/08:30pm 8.8 WSW 8 15 1027.6 - 2.6 - - - - - - -
28/08:00pm 8.8 SW 8 15 1027.7 - 2.6 - - - - - - -
28/07:30pm 9.2 WSW 8 12 1027.5 - 2.6 - - - - - - -
28/07:00pm 8.7 WSW 8 13 1027.4 - 2.6 - - - - - - -
28/06:30pm 8.8 SW 9 14 1027.1 - 2.6 - - - - - - -
28/06:00pm 8.7 SW 8 11 1027.3 - 2.6 - - - - - - -
28/05:30pm 9.0 WSW 7 10 1027.0 - 2.6 - - - - - - -
28/05:00pm 9.4 WSW 6 13 1026.7 - 2.6 - - - - - - -
28/04:30pm 9.8 WSW 7 11 1026.7 - 2.6 - - - - - - -
28/04:00pm 10.0 WSW 7 13 1026.6 - 2.6 - - - - - - -
28/03:30pm 10.3 WSW 6 11 1026.6 - 2.6 - - - - - - -
28/03:00pm 9.7 WSW 7 12 1026.8 - 2.6 - - - - - - -
28/02:30pm 10.4 WSW 7 13 1026.6 - 2.6 - - - - - - -
28/02:00pm 9.9 SW 7 12 1026.6 - 2.6 - - - - - - -
28/01:30pm 10.1 WSW 8 12 1026.3 - 2.6 - - - - - - -
28/01:00pm 9.8 WSW 8 12 1026.5 - 2.6 - - - - - - -
28/12:30pm 10.2 W 6 12 1026.9 - 2.6 - - - - - - -
28/12:00pm 9.4 WSW 6 10 1027.2 - 2.6 - - - - - - -
28/11:30am 9.4 SW 6 12 1027.2 - 2.0 - - - - - - -
28/11:00am 9.9 SSW 9 13 1027.2 - 0.8 - - - - - - -
28/10:30am 10.8 SSW 10 14 1026.9 - 0.2 - - - - - - -
28/10:00am 10.8 SSW 8 12 1027.1 - 0.2 - - - - - - -
28/09:30am 10.6 SW 11 18 1026.8 - 0.2 - - - - - - -
28/09:00am 10.4 SSW 10 17 1027.1 - 2.2 - - - - - - -
28/08:30am 11.1 SSW 5 8 1026.6 - 2.0 - - - - - - -
28/08:00am 10.7 SSW 9 13 1026.3 - 2.0 - - - - - - -
28/07:30am 10.7 SW 8 14 1026.2 - 2.0 - - - - - - -
28/07:00am 10.6 SSW 11 16 1025.9 - 2.0 - - - - - - -
28/06:30am 10.7 SSW 12 20 1025.6 - 2.0 - - - - - - -
28/06:00am 10.6 SSW 14 19 1025.9 - 2.0 - - - - - - -
28/05:30am 10.4 SSW 16 21 1025.4 - 2.0 - - - - - - -
28/05:00am 10.3 SSW 18 23 1025.2 - 2.0 - - - - - - -
28/04:30am 10.1 SSW 13 21 1025.0 - 2.0 - - - - - - -
28/04:00am 9.2 SSW 11 20 1025.0 - 2.0 - - - - - - -
28/03:30am 9.6 SSW 15 21 1025.0 - 1.8 - - - - - - -
28/03:00am 9.0 SSW 12 19 1025.5 - 1.8 - - - - - - -
28/02:30am 10.0 SW 10 13 1025.2 - 1.4 - - - - - - -
28/02:00am 9.7 SSW 10 14 1025.5 - 1.4 - - - - - - -
28/01:30am 10.6 SSW 12 21 1025.4 - 1.4 - - - - - - -
28/01:00am 10.6 SSW 16 21 1025.3 - 1.4 - - - - - - -
28/12:30am 10.4 SSW 11 16 1025.1 - 1.4 - - - - - - -
28/12:00am 10.5 SSW 13 20 1025.1 - 1.4 - - - - - - -
 
Date/Time
EST
Temp

°C
Wind Pressure Rain
since 9am
mm
Weather Cloud Vis
km
Sea
Height
m
Swell
Dir
 
Speed
knots
Gust
knots
hPa Trend Height
m
Period
s
Dir
27/11:30pm 10.5 SW 12 16 1025.1 - 1.4 - - - - - - -
27/11:00pm 10.5 SW 12 17 1025.0 - 1.4 - - - - - - -
27/10:30pm 11.2 SSW 10 16 1025.0 - 1.2 - - - - - - -
27/10:00pm 11.0 SSW 9 13 1025.2 - 1.2 - - - - - - -
27/09:30pm 11.0 SW 7 11 1025.1 - 1.2 - - - - - - -
27/09:00pm 11.1 SW 8 13 1025.0 - 1.2 - - - - - - -
27/08:30pm 11.1 WSW 7 11 1024.6 - 1.2 - - - - - - -
27/08:00pm 11.0 WSW 8 13 1024.2 - 1.2 - - - - - - -
27/07:30pm 10.9 SW 9 13 1023.8 - 1.2 - - - - - - -
27/07:00pm 11.3 SW 8 11 1023.6 - 1.2 - - - - - - -
27/06:30pm 11.1 WSW 7 11 1023.1 - 1.2 - - - - - - -
27/06:00pm 11.2 WSW 8 14 1022.9 - 1.2 - - - - - - -
27/05:30pm 11.1 SSW 7 13 1022.4 - 1.2 - - - - - - -
27/05:00pm 11.6 SW 6 12 1022.0 - 0.6 - - - - - - -
27/04:30pm 12.0 S 7 14 1021.5 - 0.2 - - - - - - -
27/04:00pm 12.4 SSW 7 9 1021.4 - 0.0 - - - - - - -
27/03:30pm 12.5 SSW 8 12 1021.4 - 0.0 - - - - - - -
27/03:00pm 12.6 SSW 9 11 1021.3 - 0.0 - - - - - - -
27/02:30pm 12.3 SSW 8 11 1021.2 - 0.0 - - - - - - -
27/02:00pm 12.6 SW 8 10 1021.4 - 0.0 - - - - - - -
27/01:30pm 13.7 WSW 8 10 1021.5 - 0.0 - - - - - - -
27/01:00pm 12.9 WSW 9 12 1021.7 - 0.0 - - - - - - -
27/12:30pm 12.5 W 8 10 1021.8 - 0.0 - - - - - - -
27/12:00pm 13.1 WNW 8 11 1022.1 - 0.0 - - - - - - -
27/11:30am 12.5 WNW 7 11 1022.4 - 0.0 - - - - - - -
27/11:00am 12.7 WNW 8 12 1022.3 - 0.0 - - - - - - -
27/10:30am 12.7 WNW 6 10 1022.3 - 0.0 - - - - - - -
27/10:00am 12.7 WNW 6 9 1022.3 - 0.0 - - - - - - -

Other Formats:

Comma delimited format used in spreadsheet applications
http://www.bom.gov.au/fwo/IDV60701/IDV60701.94842.axf

JavaScript Object Notation format (JSON) in row-major order
http://www.bom.gov.au/fwo/IDV60701/IDV60701.94842.json